createdAt,value
2022-11-17T00:01:31.806Z,4.29
2022-11-17T00:05:39.852Z,4.23
2022-11-17T00:09:48.121Z,4.22
2022-11-17T00:14:13.823Z,4.24
2022-11-17T00:18:39.506Z,4.29
2022-11-17T00:22:47.354Z,4.32
2022-11-17T00:27:03.505Z,4.32
2022-11-17T00:31:31.058Z,4.28
2022-11-17T00:35:39.040Z,4.29
2022-11-17T00:39:46.564Z,4.34
2022-11-17T00:43:54.047Z,4.38
2022-11-17T00:48:02.591Z,4.38
2022-11-17T00:52:11.263Z,4.34
2022-11-17T00:56:18.654Z,4.31
2022-11-17T01:00:30.152Z,4.33
2022-11-17T01:04:38.068Z,4.35
2022-11-17T01:08:46.411Z,4.35
2022-11-17T01:12:54.455Z,4.35
2022-11-17T01:17:02.642Z,4.32
2022-11-17T01:21:12.959Z,4.31
2022-11-17T01:25:22.022Z,4.31
2022-11-17T01:29:30.018Z,4.30
2022-11-17T01:33:37.988Z,4.27
2022-11-17T01:37:45.739Z,4.24
2022-11-17T01:41:54.185Z,4.22
2022-11-17T01:46:02.236Z,4.24
2022-11-17T01:50:14.677Z,4.29
2022-11-17T01:54:24.868Z,4.28
2022-11-17T01:58:35.618Z,4.25
2022-11-17T02:02:44.603Z,4.24
2022-11-17T02:06:52.834Z,4.24
2022-11-17T02:11:00.892Z,4.26
2022-11-17T02:15:09.838Z,4.28
2022-11-17T02:19:18.916Z,4.29
2022-11-17T02:24:14.181Z,4.26
2022-11-17T02:28:23.683Z,4.21
2022-11-17T02:32:35.340Z,4.20
2022-11-17T02:36:47.631Z,4.22
2022-11-17T02:41:03.327Z,4.23
2022-11-17T02:45:15.489Z,4.24
2022-11-17T02:49:27.804Z,4.20
2022-11-17T02:53:35.816Z,4.20
2022-11-17T02:57:44.723Z,4.22
2022-11-17T03:02:22.065Z,4.24
2022-11-17T03:06:38.705Z,4.27
2022-11-17T03:10:53.720Z,4.27
2022-11-17T03:15:09.373Z,4.29
2022-11-17T03:19:20.624Z,4.32
2022-11-17T03:23:33.434Z,4.37
2022-11-17T03:27:44.384Z,4.38
2022-11-17T03:31:54.009Z,4.38
2022-11-17T03:36:05.674Z,4.40
2022-11-17T03:40:16.267Z,4.43
2022-11-17T03:44:26.724Z,4.45
2022-11-17T03:48:38.140Z,4.45
2022-11-17T03:52:46.573Z,4.41
2022-11-17T03:56:59.632Z,4.37
2022-11-17T04:01:09.578Z,4.37
2022-11-17T04:05:18.940Z,4.41
2022-11-17T04:09:26.709Z,4.42
2022-11-17T04:13:52.237Z,4.42
2022-11-17T04:18:00.794Z,4.40
2022-11-17T04:22:09.352Z,4.36
2022-11-17T04:26:35.636Z,4.35
2022-11-17T04:30:43.987Z,4.36
2022-11-17T04:34:51.491Z,4.38
2022-11-17T04:39:00.817Z,4.37
2022-11-17T04:43:11.480Z,4.34
2022-11-17T04:47:19.480Z,4.30
2022-11-17T04:51:28.728Z,4.30
2022-11-17T04:55:37.042Z,4.31
2022-11-17T04:59:45.796Z,4.34
2022-11-17T05:03:54.802Z,4.33
2022-11-17T05:08:02.309Z,4.31
2022-11-17T05:12:28.895Z,4.31
2022-11-17T05:17:08.479Z,4.30
2022-11-17T05:21:17.216Z,4.30
2022-11-17T05:25:28.779Z,4.26
2022-11-17T05:29:41.798Z,4.24
2022-11-17T05:33:57.413Z,4.24
2022-11-17T05:38:09.272Z,4.24
2022-11-17T05:42:20.479Z,4.22
2022-11-17T05:46:37.622Z,4.25
2022-11-17T05:50:48.543Z,4.27
2022-11-17T05:55:04.195Z,4.26
2022-11-17T05:59:24.707Z,4.25
2022-11-17T06:03:39.060Z,4.23
2022-11-17T06:07:47.058Z,4.25
2022-11-17T06:12:04.098Z,4.26
2022-11-17T06:16:16.190Z,4.26
2022-11-17T06:20:28.281Z,4.22
2022-11-17T06:24:40.165Z,4.21
2022-11-17T06:28:50.621Z,4.22
2022-11-17T06:33:01.327Z,4.23
2022-11-17T06:37:09.643Z,4.24
2022-11-17T06:41:17.433Z,4.24
2022-11-17T06:45:25.913Z,4.21
2022-11-17T06:49:34.640Z,4.22
2022-11-17T06:53:42.467Z,4.24
2022-11-17T06:57:53.409Z,4.27
2022-11-17T07:02:04.039Z,4.28
2022-11-17T07:06:12.361Z,4.29
2022-11-17T07:10:20.797Z,4.28
2022-11-17T07:14:28.267Z,4.28
2022-11-17T07:18:36.635Z,4.29
2022-11-17T07:22:45.152Z,4.33
2022-11-17T07:26:52.456Z,4.37
2022-11-17T07:31:04.726Z,4.39
2022-11-17T07:35:13.055Z,4.39
2022-11-17T07:39:22.109Z,4.38
2022-11-17T07:43:30.043Z,4.38
2022-11-17T07:47:39.383Z,4.40
2022-11-17T07:51:51.370Z,4.44
2022-11-17T07:56:06.019Z,4.48
2022-11-17T08:00:15.847Z,4.53
2022-11-17T08:04:24.054Z,4.57
2022-11-17T08:08:32.231Z,4.60
2022-11-17T08:12:40.954Z,4.61
2022-11-17T08:16:48.295Z,4.61
2022-11-17T08:21:03.917Z,4.63
2022-11-17T08:25:15.313Z,4.68
2022-11-17T08:29:24.471Z,4.73
2022-11-17T08:33:33.356Z,4.73
2022-11-17T08:37:44.825Z,4.72
2022-11-17T08:41:54.170Z,4.68
2022-11-17T08:46:02.502Z,4.68
2022-11-17T08:50:11.929Z,4.69
2022-11-17T08:54:19.595Z,4.69
2022-11-17T08:58:27.213Z,4.68
2022-11-17T09:02:35.047Z,4.68
2022-11-17T09:06:42.245Z,4.69
2022-11-17T09:10:51.929Z,4.70
2022-11-17T09:14:59.258Z,4.73
2022-11-17T09:19:07.007Z,4.72
2022-11-17T09:23:15.093Z,4.74
2022-11-17T09:27:23.312Z,4.77
2022-11-17T09:31:30.899Z,4.81
2022-11-17T09:35:39.580Z,4.79
2022-11-17T09:39:46.992Z,4.80
2022-11-17T09:44:00.871Z,4.82
2022-11-17T09:48:39.352Z,4.89
2022-11-17T09:52:49.117Z,4.92
2022-11-17T09:56:57.087Z,4.91
2022-11-17T10:01:04.962Z,4.86
2022-11-17T10:05:18.167Z,4.85
2022-11-17T10:09:35.645Z,4.89
2022-11-17T10:13:43.226Z,4.93
2022-11-17T10:17:51.086Z,4.94
2022-11-17T10:22:08.371Z,4.95
2022-11-17T10:26:17.177Z,4.95
2022-11-17T10:30:26.605Z,4.95
2022-11-17T10:34:41.044Z,4.95
2022-11-17T10:38:52.018Z,4.95
2022-11-17T10:43:24.333Z,4.92
2022-11-17T10:47:35.232Z,4.87
2022-11-17T10:51:42.990Z,4.83
2022-11-17T10:55:57.226Z,4.83
2022-11-17T11:00:05.784Z,4.86
2022-11-17T11:04:30.793Z,4.92
2022-11-17T11:08:48.769Z,4.93
2022-11-17T11:13:21.475Z,4.95
2022-11-17T11:17:49.145Z,4.92
2022-11-17T11:22:22.771Z,4.90
2022-11-17T11:26:46.211Z,4.90
2022-11-17T11:31:02.343Z,4.94
2022-11-17T11:35:37.652Z,4.94
2022-11-17T11:39:52.111Z,4.93
2022-11-17T11:44:26.312Z,4.90
2022-11-17T11:48:35.325Z,4.84
2022-11-17T11:52:47.474Z,4.82
2022-11-17T11:56:55.286Z,4.82
2022-11-17T12:01:07.687Z,4.78
2022-11-17T12:05:23.595Z,4.74
2022-11-17T12:10:01.558Z,4.76
2022-11-17T12:14:12.871Z,4.76
2022-11-17T12:18:33.648Z,4.74
2022-11-17T12:23:02.295Z,4.74
2022-11-17T12:27:34.318Z,4.72
2022-11-17T12:31:48.900Z,4.68
2022-11-17T12:36:30.196Z,4.62
2022-11-17T12:40:49.585Z,4.58
2022-11-17T12:45:05.613Z,4.54
2022-11-17T12:49:29.748Z,4.54
2022-11-17T12:53:57.966Z,4.57
2022-11-17T12:58:16.083Z,4.52
2022-11-17T13:02:38.301Z,4.47
2022-11-17T13:07:07.646Z,4.40
2022-11-17T13:11:18.564Z,4.34
2022-11-17T13:15:26.561Z,4.32
2022-11-17T13:19:42.553Z,4.33
2022-11-17T13:23:50.233Z,4.32
2022-11-17T13:28:04.226Z,4.28
2022-11-17T13:32:18.723Z,4.25
2022-11-17T13:36:27.310Z,4.18
2022-11-17T13:40:35.880Z,4.16
2022-11-17T13:44:43.390Z,4.15
2022-11-17T13:48:52.409Z,4.16
2022-11-17T13:53:02.299Z,4.16
2022-11-17T13:57:16.823Z,4.15
2022-11-17T14:01:29.794Z,4.08
2022-11-17T14:05:37.867Z,4.03
2022-11-17T14:09:45.923Z,3.97
2022-11-17T14:13:58.822Z,3.95
2022-11-17T14:18:19.771Z,3.96
2022-11-17T14:22:31.833Z,3.98
2022-11-17T14:26:45.075Z,3.97
2022-11-17T14:30:53.705Z,3.97
2022-11-17T14:35:01.812Z,3.93
2022-11-17T14:39:16.896Z,3.90
2022-11-17T14:43:25.293Z,3.92
2022-11-17T14:47:33.349Z,3.94
2022-11-17T14:51:41.008Z,3.93
2022-11-17T14:55:48.962Z,3.91
2022-11-17T14:59:56.992Z,3.84
2022-11-17T15:04:27.205Z,3.77
2022-11-17T15:08:33.501Z,3.71
2022-11-17T15:12:40.861Z,3.75
2022-11-17T15:16:48.664Z,3.81
2022-11-17T15:21:04.387Z,3.86
2022-11-17T15:25:13.289Z,3.82
2022-11-17T15:29:21.529Z,3.78
2022-11-17T15:33:29.410Z,3.73
2022-11-17T15:37:37.283Z,3.75
2022-11-17T15:41:45.341Z,3.80
2022-11-17T15:45:52.939Z,3.80
2022-11-17T15:50:00.843Z,3.75
2022-11-17T15:54:08.521Z,3.68
2022-11-17T15:58:16.593Z,3.61
2022-11-17T16:02:24.540Z,3.54
2022-11-17T16:06:33.474Z,3.55
2022-11-17T16:10:42.243Z,3.58
2022-11-17T16:14:49.644Z,3.59
2022-11-17T16:18:57.936Z,3.57
2022-11-17T16:23:05.247Z,3.57
2022-11-17T16:27:13.707Z,3.54
2022-11-17T16:31:23.694Z,3.50
2022-11-17T16:35:31.206Z,3.52
2022-11-17T16:39:39.875Z,3.56
2022-11-17T16:43:50.509Z,3.57
2022-11-17T16:47:58.220Z,3.52
2022-11-17T16:52:06.159Z,3.45
2022-11-17T16:56:14.774Z,3.38
2022-11-17T17:00:23.487Z,3.30
2022-11-17T17:04:33.818Z,3.30
2022-11-17T17:08:42.206Z,3.31
2022-11-17T17:12:51.099Z,3.32
2022-11-17T17:16:58.598Z,3.30
2022-11-17T17:21:07.914Z,3.24
2022-11-17T17:25:16.367Z,3.20
2022-11-17T17:29:24.531Z,3.16
2022-11-17T17:33:35.572Z,3.16
2022-11-17T17:37:43.317Z,3.17
2022-11-17T17:41:54.840Z,3.17
2022-11-17T17:46:04.124Z,3.13
2022-11-17T17:50:15.192Z,3.09
2022-11-17T17:54:25.365Z,3.03
2022-11-17T17:58:40.302Z,2.98
2022-11-17T18:02:50.136Z,2.99
2022-11-17T18:06:59.498Z,3.03
2022-11-17T18:11:09.681Z,3.04
2022-11-17T18:15:18.544Z,3.03
2022-11-17T18:19:31.529Z,2.99
2022-11-17T18:23:41.373Z,2.94
2022-11-17T18:27:49.151Z,2.90
2022-11-17T18:31:56.848Z,2.91
2022-11-17T18:36:11.849Z,2.94
2022-11-17T18:40:20.007Z,2.95
2022-11-17T18:44:30.802Z,2.94
2022-11-17T18:48:41.148Z,2.92
2022-11-17T18:52:50.399Z,2.88
2022-11-17T18:57:01.744Z,2.83
2022-11-17T19:01:11.456Z,2.83
2022-11-17T19:05:19.302Z,2.86
2022-11-17T19:09:27.187Z,2.88
2022-11-17T19:13:37.500Z,2.87
2022-11-17T19:17:47.063Z,2.83
2022-11-17T19:21:55.296Z,2.78
2022-11-17T19:26:05.895Z,2.75
2022-11-17T19:30:15.755Z,2.78
2022-11-17T19:34:23.278Z,2.81
2022-11-17T19:38:34.637Z,2.84
2022-11-17T19:42:43.003Z,2.82
2022-11-17T19:46:50.988Z,2.77
2022-11-17T19:50:59.046Z,2.74
2022-11-17T19:55:07.363Z,2.71
2022-11-17T19:59:16.689Z,2.72
2022-11-17T20:03:24.969Z,2.77
2022-11-17T20:07:34.270Z,2.79
2022-11-17T20:11:42.585Z,2.78
2022-11-17T20:15:51.091Z,2.74
2022-11-17T20:19:58.671Z,2.71
2022-11-17T20:24:06.032Z,2.66
2022-11-17T20:28:13.757Z,2.69
2022-11-17T20:32:21.174Z,2.73
2022-11-17T20:36:29.192Z,2.71
2022-11-17T20:40:37.084Z,2.70
2022-11-17T20:44:45.537Z,2.67
2022-11-17T20:48:53.977Z,2.65
2022-11-17T20:53:01.740Z,2.68
2022-11-17T20:57:09.523Z,2.70
2022-11-17T21:01:18.887Z,2.72
2022-11-17T21:05:26.455Z,2.71
2022-11-17T21:09:36.022Z,2.69
2022-11-17T21:13:44.508Z,2.65
2022-11-17T21:18:10.131Z,2.61
2022-11-17T21:22:17.867Z,2.61
2022-11-17T21:26:25.734Z,2.66
2022-11-17T21:30:34.377Z,2.68
2022-11-17T21:34:45.637Z,2.66
2022-11-17T21:38:57.272Z,2.63
2022-11-17T21:43:04.913Z,2.61
2022-11-17T21:47:12.606Z,2.56
2022-11-17T21:51:22.360Z,2.57
2022-11-17T21:55:30.619Z,2.61
2022-11-17T21:59:38.286Z,2.59
2022-11-17T22:03:46.560Z,2.56
2022-11-17T22:07:54.861Z,2.57
2022-11-17T22:12:05.450Z,2.55
2022-11-17T22:16:14.796Z,2.53
2022-11-17T22:20:22.672Z,2.53
2022-11-17T22:24:30.396Z,2.59
2022-11-17T22:28:38.157Z,2.60
2022-11-17T22:32:46.083Z,2.59
2022-11-17T22:36:53.728Z,2.59
2022-11-17T22:41:03.832Z,2.56
2022-11-17T22:45:13.333Z,2.53
2022-11-17T22:49:21.242Z,2.56
2022-11-17T22:53:29.684Z,2.60
2022-11-17T22:57:37.476Z,2.62
2022-11-17T23:01:45.459Z,2.60
2022-11-17T23:05:53.118Z,2.59
2022-11-17T23:10:01.275Z,2.57
2022-11-17T23:14:12.593Z,2.55
2022-11-17T23:18:20.591Z,2.56
2022-11-17T23:22:31.072Z,2.62
2022-11-17T23:26:38.249Z,2.63
2022-11-17T23:30:46.560Z,2.63
2022-11-17T23:34:53.973Z,2.60
2022-11-17T23:39:02.421Z,2.53
2022-11-17T23:43:11.346Z,2.51
2022-11-17T23:47:18.984Z,2.53
2022-11-17T23:51:29.857Z,2.56
2022-11-17T23:55:37.809Z,2.54
2022-11-17T23:59:45.186Z,2.53
